createdAt,value
2018-07-01T00:01:06.710Z,98770.12
2018-07-01T00:03:35.818Z,98774.44
2018-07-01T00:06:04.902Z,98778.27
2018-07-01T00:08:33.998Z,98778.94
2018-07-01T00:11:03.078Z,98783.70
2018-07-01T00:13:32.173Z,98780.04
2018-07-01T00:16:01.232Z,98743.78
2018-07-01T00:18:30.278Z,98771.18
2018-07-01T00:20:59.366Z,98776.56
2018-07-01T00:23:28.539Z,98778.48
2018-07-01T00:25:57.649Z,98783.08
2018-07-01T00:28:26.833Z,98785.77
2018-07-01T00:30:55.882Z,98781.38
2018-07-01T00:33:25.158Z,98787.55
2018-07-01T00:38:22.170Z,98783.75
2018-07-01T00:40:51.629Z,98784.00
2018-07-01T00:43:20.669Z,98786.25
2018-07-01T00:45:49.830Z,98783.44
2018-07-01T00:48:19.289Z,98790.42
2018-07-01T00:50:48.538Z,98783.54
2018-07-01T00:53:17.591Z,98786.59
2018-07-01T00:55:46.653Z,98791.42
2018-07-01T00:58:15.738Z,98794.42
2018-07-01T01:00:44.909Z,98792.20
2018-07-01T01:03:13.989Z,98787.38
2018-07-01T01:05:43.143Z,98786.70
2018-07-01T01:08:12.237Z,98789.95
2018-07-01T01:10:41.411Z,98785.36
2018-07-01T01:13:10.556Z,98789.53
2018-07-01T01:15:39.920Z,98796.69
2018-07-01T01:18:09.047Z,98806.55
2018-07-01T01:20:38.154Z,98800.14
2018-07-01T01:23:07.251Z,98797.52
2018-07-01T01:25:36.332Z,98796.48
2018-07-01T01:28:05.421Z,98794.05
2018-07-01T01:30:34.477Z,98789.52
2018-07-01T01:33:03.604Z,98795.47
2018-07-01T01:35:32.665Z,98796.66
2018-07-01T01:38:01.761Z,98797.67
2018-07-01T01:40:35.185Z,98789.95
2018-07-01T01:43:08.113Z,98796.21
2018-07-01T01:45:45.436Z,98804.92
2018-07-01T01:48:19.877Z,98807.60
2018-07-01T01:50:56.135Z,98810.28
2018-07-01T01:53:30.381Z,98805.98
2018-07-01T01:56:12.409Z,98805.30
2018-07-01T01:58:48.862Z,98809.88
2018-07-01T02:01:24.123Z,98810.09
2018-07-01T02:04:05.022Z,98806.94
2018-07-01T02:06:38.286Z,98809.50
2018-07-01T02:09:40.249Z,98810.84
2018-07-01T02:12:11.578Z,98802.91
2018-07-01T02:14:43.750Z,98807.75
2018-07-01T02:17:17.949Z,98802.09
2018-07-01T02:19:47.050Z,98802.09
2018-07-01T02:22:19.145Z,98805.23
2018-07-01T02:24:49.744Z,98800.34
2018-07-01T02:27:18.841Z,98802.54
2018-07-01T02:29:48.009Z,98801.52
2018-07-01T02:32:17.339Z,98802.60
2018-07-01T02:34:46.445Z,98799.88
2018-07-01T02:37:15.529Z,98800.30
2018-07-01T02:39:44.621Z,98796.36
2018-07-01T02:42:13.718Z,98796.98
2018-07-01T02:44:43.398Z,98794.23
2018-07-01T02:47:12.586Z,98794.23
2018-07-01T02:49:41.721Z,98793.59
2018-07-01T02:52:10.777Z,98796.95
2018-07-01T02:54:39.806Z,98795.67
2018-07-01T02:57:08.900Z,98798.96
2018-07-01T02:59:37.958Z,98802.73
2018-07-01T03:02:07.366Z,98799.42
2018-07-01T03:04:36.456Z,98800.05
2018-07-01T03:07:05.589Z,98795.91
2018-07-01T03:09:34.652Z,98797.84
2018-07-01T03:12:03.753Z,98801.23
2018-07-01T03:14:32.818Z,98793.91
2018-07-01T03:17:01.905Z,98798.91
2018-07-01T03:19:30.977Z,98792.56
2018-07-01T03:22:00.095Z,98797.92
2018-07-01T03:24:29.464Z,98803.66
2018-07-01T03:26:58.577Z,98803.12
2018-07-01T03:29:28.087Z,98800.55
2018-07-01T03:31:57.158Z,98807.09
2018-07-01T03:34:26.528Z,98808.98
2018-07-01T03:36:55.869Z,98808.52
2018-07-01T03:39:24.962Z,98809.30
2018-07-01T03:41:54.156Z,98807.97
2018-07-01T03:44:23.354Z,98811.44
2018-07-01T03:46:52.461Z,98811.67
2018-07-01T03:49:21.570Z,98816.94
2018-07-01T03:51:50.799Z,98812.22
2018-07-01T03:54:19.901Z,98814.36
2018-07-01T03:56:48.893Z,98815.77
2018-07-01T03:59:17.961Z,98811.22
2018-07-01T04:01:47.132Z,98812.08
2018-07-01T04:04:16.219Z,98817.50
2018-07-01T04:06:45.321Z,98820.47
2018-07-01T04:09:14.410Z,98825.53
2018-07-01T04:11:43.565Z,98822.13
2018-07-01T04:14:12.665Z,98824.88
2018-07-01T04:16:41.715Z,98827.14
2018-07-01T04:19:10.853Z,98826.75
2018-07-01T04:21:40.299Z,98829.75
2018-07-01T04:24:09.395Z,98826.14
2018-07-01T04:26:38.491Z,98834.34
2018-07-01T04:29:07.601Z,98838.11
2018-07-01T04:31:36.783Z,98830.33
2018-07-01T04:34:06.108Z,98830.55
2018-07-01T04:36:35.191Z,98838.03
2018-07-01T04:39:05.878Z,98837.09
2018-07-01T04:41:35.017Z,98829.86
2018-07-01T04:44:04.102Z,98833.88
2018-07-01T04:46:33.126Z,98834.02
2018-07-01T04:49:02.209Z,98835.50
2018-07-01T04:51:31.297Z,98834.81
2018-07-01T04:54:00.385Z,98837.02
2018-07-01T04:56:29.679Z,98833.29
2018-07-01T04:58:58.782Z,98834.95
2018-07-01T05:01:27.922Z,98835.42
2018-07-01T05:03:56.969Z,98831.09
2018-07-01T05:06:26.058Z,98837.16
2018-07-01T05:08:55.137Z,98831.81
2018-07-01T05:11:24.309Z,98835.50
2018-07-01T05:13:53.508Z,98839.37
2018-07-01T05:16:22.557Z,98839.91
2018-07-01T05:18:51.650Z,98838.72
2018-07-01T05:21:20.717Z,98845.88
2018-07-01T05:23:49.866Z,98844.17
2018-07-01T05:26:18.905Z,98844.94
2018-07-01T05:28:48.025Z,98843.40
2018-07-01T05:31:17.125Z,98841.65
2018-07-01T05:33:46.184Z,98843.70
2018-07-01T05:36:15.222Z,98841.33
2018-07-01T05:38:44.418Z,98838.47
2018-07-01T05:41:14.222Z,98836.41
2018-07-01T05:43:43.722Z,98834.25
2018-07-01T05:46:13.228Z,98826.16
2018-07-01T05:48:42.342Z,98836.48
2018-07-01T05:51:11.421Z,98835.83
2018-07-01T05:53:40.926Z,98832.74
2018-07-01T05:56:10.024Z,98829.65
2018-07-01T05:58:39.117Z,98835.98
2018-07-01T06:01:08.317Z,98840.38
2018-07-01T06:03:37.418Z,98844.69
2018-07-01T06:06:06.548Z,98848.38
2018-07-01T06:08:35.630Z,98852.27
2018-07-01T06:11:05.030Z,98842.80
2018-07-01T06:13:34.375Z,98849.38
2018-07-01T06:16:03.507Z,98847.02
2018-07-01T06:18:32.641Z,98850.09
2018-07-01T06:21:01.753Z,98859.81
2018-07-01T06:23:30.863Z,98844.85
2018-07-01T06:25:59.984Z,98837.69
2018-07-01T06:28:29.086Z,98845.59
2018-07-01T06:30:58.150Z,98839.98
2018-07-01T06:33:27.233Z,98845.77
2018-07-01T06:35:57.414Z,98847.02
2018-07-01T06:38:26.497Z,98842.88
2018-07-01T06:40:55.682Z,98843.59
2018-07-01T06:43:25.755Z,98842.36
2018-07-01T06:45:55.633Z,98849.66
2018-07-01T06:48:25.041Z,98845.65
2018-07-01T06:50:54.175Z,98848.95
2018-07-01T06:53:23.221Z,98846.33
2018-07-01T06:55:52.364Z,98853.24
2018-07-01T06:58:21.499Z,98855.13
2018-07-01T07:00:50.647Z,98847.81
2018-07-01T07:03:19.708Z,98854.93
2018-07-01T07:05:48.921Z,98856.03
2018-07-01T07:08:18.014Z,98850.11
2018-07-01T07:10:47.146Z,98855.17
2018-07-01T07:13:16.509Z,98859.54
2018-07-01T07:15:45.561Z,98859.56
2018-07-01T07:18:14.822Z,98857.56
2018-07-01T07:20:43.942Z,98857.11
2018-07-01T07:23:12.981Z,98854.75
2018-07-01T07:25:42.124Z,98851.39
2018-07-01T07:28:11.224Z,98857.30
2018-07-01T07:33:08.233Z,98862.31
2018-07-01T07:35:37.625Z,98857.04
2018-07-01T07:38:06.739Z,98853.35
2018-07-01T07:40:35.770Z,98851.33
2018-07-01T07:43:04.937Z,98847.27
2018-07-01T07:45:34.034Z,98847.58
2018-07-01T07:48:03.307Z,98849.06
2018-07-01T07:50:32.420Z,98847.13
2018-07-01T07:53:01.723Z,98849.13
2018-07-01T07:55:31.041Z,98852.23
2018-07-01T07:58:00.206Z,98852.44
2018-07-01T08:00:29.302Z,98841.55
2018-07-01T08:02:58.465Z,98848.84
2018-07-01T08:05:27.513Z,98847.34
2018-07-01T08:07:56.757Z,98843.89
2018-07-01T08:10:26.526Z,98844.84
2018-07-01T08:12:55.693Z,98840.11
2018-07-01T08:15:24.765Z,98838.89
2018-07-01T08:17:53.807Z,98842.09
2018-07-01T08:20:22.886Z,98836.22
2018-07-01T08:22:51.921Z,98843.13
2018-07-01T08:25:21.072Z,98823.05
2018-07-01T08:27:50.198Z,98827.06
2018-07-01T08:30:19.320Z,98831.62
2018-07-01T08:32:48.364Z,98835.13
2018-07-01T08:35:17.435Z,98834.13
2018-07-01T08:37:46.482Z,98835.34
2018-07-01T08:40:15.619Z,98839.02
2018-07-01T08:42:44.743Z,98843.56
2018-07-01T08:45:13.875Z,98851.23
2018-07-01T08:47:43.037Z,98843.63
2018-07-01T08:50:12.123Z,98843.77
2018-07-01T08:52:41.412Z,98837.52
2018-07-01T08:55:10.526Z,98834.39
2018-07-01T08:57:39.622Z,98839.56
2018-07-01T09:00:08.742Z,98838.28
2018-07-01T09:02:37.841Z,98837.58
2018-07-01T09:05:06.928Z,98841.48
2018-07-01T09:07:35.995Z,98849.53
2018-07-01T09:10:05.487Z,98847.03
2018-07-01T09:12:34.719Z,98841.64
2018-07-01T09:15:03.780Z,98844.20
2018-07-01T09:17:32.963Z,98851.13
2018-07-01T09:20:02.043Z,98842.66
2018-07-01T09:22:31.153Z,98847.09
2018-07-01T09:25:00.168Z,98841.91
2018-07-01T09:27:29.433Z,98837.86
2018-07-01T09:30:01.382Z,98845.59
2018-07-01T09:32:31.229Z,98852.26
2018-07-01T09:35:00.621Z,98854.50
2018-07-01T09:37:29.696Z,98847.78
2018-07-01T09:39:58.748Z,98833.23
2018-07-01T09:42:27.845Z,98833.64
2018-07-01T09:44:56.868Z,98841.97
2018-07-01T09:47:26.041Z,98846.99
2018-07-01T09:49:55.099Z,98839.62
2018-07-01T09:52:24.212Z,98835.99
2018-07-01T09:54:53.253Z,98839.92
2018-07-01T09:57:22.302Z,98836.02
2018-07-01T09:59:51.360Z,98833.89
2018-07-01T10:02:20.619Z,98824.72
2018-07-01T10:04:49.804Z,98826.14
2018-07-01T10:07:18.849Z,98823.02
2018-07-01T10:09:48.007Z,98825.04
2018-07-01T10:12:17.172Z,98820.66
2018-07-01T10:14:46.220Z,98821.43
2018-07-01T10:17:15.269Z,98819.06
2018-07-01T10:19:44.410Z,98817.28
2018-07-01T10:22:13.481Z,98821.94
2018-07-01T10:24:42.557Z,98822.34
2018-07-01T10:27:11.626Z,98819.50
2018-07-01T10:29:41.067Z,98821.64
2018-07-01T10:32:10.296Z,98822.59
2018-07-01T10:34:39.417Z,98827.04
2018-07-01T10:37:08.673Z,98824.02
2018-07-01T10:39:37.721Z,98822.22
2018-07-01T10:42:06.861Z,98820.97
2018-07-01T10:44:35.991Z,98820.02
2018-07-01T10:47:05.661Z,98821.39
2018-07-01T10:49:34.751Z,98823.90
2018-07-01T10:52:04.245Z,98824.39
2018-07-01T10:54:33.543Z,98812.04
2018-07-01T10:57:02.654Z,98815.09
2018-07-01T10:59:31.737Z,98819.33
2018-07-01T11:02:00.955Z,98813.34
2018-07-01T11:04:29.992Z,98821.78
2018-07-01T11:06:59.055Z,98814.53
2018-07-01T11:09:28.134Z,98809.98
2018-07-01T11:11:57.233Z,98809.47
2018-07-01T11:14:26.342Z,98800.08
2018-07-01T11:16:55.453Z,98809.25
2018-07-01T11:19:24.529Z,98800.14
2018-07-01T11:21:53.643Z,98792.11
2018-07-01T11:24:22.787Z,98788.70
2018-07-01T11:26:52.100Z,98785.86
2018-07-01T11:29:21.113Z,98786.08
2018-07-01T11:31:50.947Z,98792.97
2018-07-01T11:34:20.026Z,98782.01
2018-07-01T11:36:49.122Z,98781.31
2018-07-01T11:39:18.193Z,98780.55
2018-07-01T11:41:47.253Z,98781.16
2018-07-01T11:44:16.289Z,98776.18
2018-07-01T11:46:45.437Z,98772.95
2018-07-01T11:49:14.563Z,98777.67
2018-07-01T11:51:43.718Z,98772.97
2018-07-01T11:54:12.814Z,98774.92
2018-07-01T11:56:41.869Z,98774.19
2018-07-01T11:59:10.960Z,98770.47
2018-07-01T12:01:40.057Z,98770.64
2018-07-01T12:04:09.159Z,98764.66
2018-07-01T12:06:38.273Z,98763.11
2018-07-01T12:09:08.378Z,98760.16
2018-07-01T12:11:37.742Z,98761.13
2018-07-01T12:14:06.976Z,98762.11
2018-07-01T12:16:36.491Z,98750.20
2018-07-01T12:19:05.879Z,98754.14
2018-07-01T12:21:34.983Z,98751.63
2018-07-01T12:24:04.055Z,98752.01
2018-07-01T12:26:33.233Z,98752.88
2018-07-01T12:29:02.446Z,98752.00
2018-07-01T12:31:31.569Z,98744.05
2018-07-01T12:34:00.636Z,98644.50
2018-07-01T12:36:29.758Z,98745.08
2018-07-01T12:38:58.844Z,98744.64
2018-07-01T12:41:28.014Z,98740.14
2018-07-01T12:43:57.106Z,98739.04
2018-07-01T12:46:26.139Z,98736.37
2018-07-01T12:48:55.329Z,98741.58
2018-07-01T12:51:24.532Z,98744.64
2018-07-01T12:53:53.592Z,98727.64
2018-07-01T12:56:22.934Z,98728.26
2018-07-01T12:58:51.921Z,98738.19
2018-07-01T13:01:21.013Z,98701.20
2018-07-01T13:03:50.070Z,98728.45
2018-07-01T13:06:19.134Z,98723.22
2018-07-01T13:08:48.147Z,98720.66
2018-07-01T13:11:17.290Z,98722.07
2018-07-01T13:13:47.330Z,98722.47
2018-07-01T13:16:16.410Z,98725.66
2018-07-01T13:18:45.515Z,98723.05
2018-07-01T13:21:14.623Z,98721.05
2018-07-01T13:23:43.700Z,98721.00
2018-07-01T13:26:12.811Z,98709.30
2018-07-01T13:28:42.291Z,98710.88
2018-07-01T13:31:11.318Z,98707.11
2018-07-01T13:33:40.398Z,98703.17
2018-07-01T13:36:09.471Z,98707.89
2018-07-01T13:38:38.561Z,98702.34
2018-07-01T13:41:07.684Z,98702.24
2018-07-01T13:43:36.771Z,98697.51
2018-07-01T13:46:06.610Z,98693.33
2018-07-01T13:48:35.705Z,98693.83
2018-07-01T13:51:04.802Z,98691.66
2018-07-01T13:53:33.844Z,98698.39
2018-07-01T13:56:02.931Z,98698.38
2018-07-01T13:58:32.055Z,98688.44
2018-07-01T14:01:01.112Z,98689.45
2018-07-01T14:03:30.189Z,98695.27
2018-07-01T14:05:59.286Z,98700.66
2018-07-01T14:08:28.485Z,98693.59
2018-07-01T14:10:57.445Z,98693.43
2018-07-01T14:13:26.538Z,98692.81
2018-07-01T14:15:55.932Z,98688.13
2018-07-01T14:18:25.495Z,98687.12
2018-07-01T14:20:54.695Z,98687.41
2018-07-01T14:23:23.816Z,98680.38
2018-07-01T14:25:52.957Z,98679.25
2018-07-01T14:28:22.023Z,98674.59
2018-07-01T14:30:51.117Z,98671.05
2018-07-01T14:33:20.270Z,98672.06
2018-07-01T14:35:49.326Z,98670.74
2018-07-01T14:38:18.619Z,98672.77
2018-07-01T14:40:47.785Z,98657.45
2018-07-01T14:43:17.261Z,98660.68
2018-07-01T14:45:46.290Z,98668.20
2018-07-01T14:48:15.780Z,98665.27
2018-07-01T14:50:45.926Z,98663.07
2018-07-01T14:53:15.250Z,98667.87
2018-07-01T14:55:44.413Z,98660.81
2018-07-01T14:58:13.494Z,98652.34
2018-07-01T15:00:42.687Z,98647.69
2018-07-01T15:03:11.986Z,98654.23
2018-07-01T15:05:41.093Z,98653.94
2018-07-01T15:08:10.225Z,98643.77
2018-07-01T15:10:40.330Z,98641.59
2018-07-01T15:13:09.423Z,98654.89
2018-07-01T15:15:39.003Z,98648.47
2018-07-01T15:18:08.096Z,98641.38
2018-07-01T15:20:37.258Z,98648.42
2018-07-01T15:23:06.306Z,98644.80
2018-07-01T15:25:37.221Z,98649.06
2018-07-01T15:28:06.574Z,98642.36
2018-07-01T15:30:35.706Z,98640.62
2018-07-01T15:33:04.738Z,98640.01
2018-07-01T15:35:33.817Z,98644.00
2018-07-01T15:38:02.917Z,98636.12
2018-07-01T15:40:32.007Z,98641.20
2018-07-01T15:43:01.089Z,98637.52
2018-07-01T15:45:30.214Z,98625.17
2018-07-01T15:47:59.302Z,98633.26
2018-07-01T15:50:28.472Z,98625.55
2018-07-01T15:52:57.539Z,98629.69
2018-07-01T15:55:26.722Z,98629.32
2018-07-01T15:57:55.828Z,98626.23
2018-07-01T16:00:25.465Z,98626.44
2018-07-01T16:02:54.747Z,98623.02
2018-07-01T16:05:23.810Z,98636.89
2018-07-01T16:07:53.647Z,98627.45
2018-07-01T16:10:23.550Z,98630.91
2018-07-01T16:12:53.054Z,98624.88
2018-07-01T16:15:22.110Z,98630.00
2018-07-01T16:17:51.391Z,98631.27
2018-07-01T16:20:20.536Z,98614.98
2018-07-01T16:22:49.730Z,98618.44
2018-07-01T16:25:24.129Z,98615.55
2018-07-01T16:27:58.494Z,98616.92
2018-07-01T16:30:27.631Z,98615.09
2018-07-01T16:32:56.864Z,98612.43
2018-07-01T16:35:26.043Z,98604.81
2018-07-01T16:37:55.230Z,98611.98
2018-07-01T16:40:24.429Z,98613.28
2018-07-01T16:42:53.553Z,98543.06
2018-07-01T16:45:22.634Z,98616.44
2018-07-01T16:47:52.658Z,98619.41
2018-07-01T16:50:21.973Z,98616.38
2018-07-01T16:52:51.053Z,98611.09
2018-07-01T16:55:20.123Z,98608.87
2018-07-01T16:57:49.329Z,98618.30
2018-07-01T17:00:18.424Z,98622.69
2018-07-01T17:02:47.606Z,98619.23
2018-07-01T17:05:16.903Z,98619.20
2018-07-01T17:07:46.672Z,98625.14
2018-07-01T17:10:18.529Z,98622.90
2018-07-01T17:12:47.696Z,98630.13
2018-07-01T17:15:16.896Z,98616.91
2018-07-01T17:17:46.200Z,98619.31
2018-07-01T17:20:15.345Z,98624.19
2018-07-01T17:22:44.469Z,98620.44
2018-07-01T17:25:13.826Z,98624.92
2018-07-01T17:27:42.969Z,98615.61
2018-07-01T17:30:12.127Z,98617.42
2018-07-01T17:32:46.575Z,98608.67
2018-07-01T17:35:15.738Z,98615.82
2018-07-01T17:37:45.522Z,98618.14
2018-07-01T17:40:14.635Z,98621.55
2018-07-01T17:42:43.812Z,98614.30
2018-07-01T17:45:12.940Z,98614.00
2018-07-01T17:47:42.026Z,98611.91
2018-07-01T17:50:11.089Z,98613.83
2018-07-01T17:52:40.117Z,98612.50
2018-07-01T17:55:08.933Z,98606.75
2018-07-01T17:57:38.045Z,98608.69
2018-07-01T18:00:07.093Z,98612.25
2018-07-01T18:02:36.253Z,98607.27
2018-07-01T18:05:05.941Z,98607.20
2018-07-01T18:07:35.049Z,98612.38
2018-07-01T18:10:04.083Z,98610.38
2018-07-01T18:12:33.202Z,98606.80
2018-07-01T18:15:04.220Z,98610.38
2018-07-01T18:17:33.306Z,98613.84
2018-07-01T18:20:02.443Z,98612.28
2018-07-01T18:23:00.810Z,98615.20
2018-07-01T18:25:08.614Z,98607.23
2018-07-01T18:27:36.096Z,98612.50
2018-07-01T18:29:58.966Z,98616.80
2018-07-01T18:32:28.093Z,98609.77
2018-07-01T18:34:57.512Z,98612.90
2018-07-01T18:37:26.595Z,98618.39
2018-07-01T18:39:55.873Z,98616.42
2018-07-01T18:42:24.994Z,98611.45
2018-07-01T18:44:54.129Z,98619.03
2018-07-01T18:47:23.249Z,98612.63
2018-07-01T18:49:52.408Z,98613.03
2018-07-01T18:52:21.662Z,98619.24
2018-07-01T18:54:50.779Z,98615.16
2018-07-01T18:57:19.910Z,98617.10
2018-07-01T18:59:49.018Z,98615.55
2018-07-01T19:02:18.273Z,98625.84
2018-07-01T19:04:47.345Z,98622.94
2018-07-01T19:07:16.410Z,98622.56
2018-07-01T19:09:45.509Z,98626.63
2018-07-01T19:12:14.614Z,98627.59
2018-07-01T19:14:43.848Z,98624.06
2018-07-01T19:17:12.969Z,98631.20
2018-07-01T19:19:42.079Z,98633.30
2018-07-01T19:22:11.542Z,98636.25
2018-07-01T19:24:40.624Z,98638.34
2018-07-01T19:27:09.820Z,98638.84
2018-07-01T19:29:39.153Z,98641.92
2018-07-01T19:32:08.570Z,98643.45
2018-07-01T19:34:37.783Z,98642.05
2018-07-01T19:37:08.000Z,98638.73
2018-07-01T19:39:37.115Z,98643.54
2018-07-01T19:42:06.343Z,98648.35
2018-07-01T19:44:35.683Z,98646.37
2018-07-01T19:47:05.109Z,98649.78
2018-07-01T19:49:34.178Z,98650.74
2018-07-01T19:52:03.297Z,98650.45
2018-07-01T19:54:32.437Z,98647.06
2018-07-01T19:57:01.525Z,98646.66
2018-07-01T19:59:30.610Z,98653.29
2018-07-01T20:01:59.697Z,98645.54
2018-07-01T20:04:29.683Z,98656.59
2018-07-01T20:06:58.809Z,98656.02
2018-07-01T20:09:27.929Z,98660.36
2018-07-01T20:11:57.073Z,98653.45
2018-07-01T20:14:26.252Z,98670.41
2018-07-01T20:16:55.425Z,98667.23
2018-07-01T20:19:24.576Z,98666.60
2018-07-01T20:21:53.662Z,98667.53
2018-07-01T20:24:22.863Z,98667.37
2018-07-01T20:26:51.905Z,98669.16
2018-07-01T20:29:21.062Z,98666.09
2018-07-01T20:31:50.210Z,98669.78
2018-07-01T20:34:19.342Z,98669.13
2018-07-01T20:36:48.474Z,98669.98
2018-07-01T20:39:17.613Z,98675.52
2018-07-01T20:41:46.782Z,98678.53
2018-07-01T20:44:15.902Z,98673.39
2018-07-01T20:46:46.022Z,98675.72
2018-07-01T20:49:15.087Z,98674.17
2018-07-01T20:51:44.221Z,98670.25
2018-07-01T20:54:13.331Z,98686.94
2018-07-01T20:56:43.170Z,98673.33
2018-07-01T20:59:12.271Z,98673.92
2018-07-01T21:01:41.382Z,98671.30
2018-07-01T21:04:10.611Z,98674.13
2018-07-01T21:06:39.694Z,98677.69
2018-07-01T21:09:10.121Z,98669.85
2018-07-01T21:11:39.139Z,98678.88
2018-07-01T21:14:08.295Z,98684.21
2018-07-01T21:16:37.378Z,98681.38
2018-07-01T21:19:06.540Z,98675.82
2018-07-01T21:21:35.590Z,98684.73
2018-07-01T21:24:04.729Z,98682.41
2018-07-01T21:26:33.874Z,98683.19
2018-07-01T21:29:02.977Z,98685.84
2018-07-01T21:31:32.038Z,98693.08
2018-07-01T21:34:01.165Z,98693.65
2018-07-01T21:36:34.171Z,98683.86
2018-07-01T21:39:03.639Z,98693.27
2018-07-01T21:41:32.782Z,98696.08
2018-07-01T21:44:01.843Z,98691.13
2018-07-01T21:46:30.930Z,98700.04
2018-07-01T21:49:00.027Z,98699.81
2018-07-01T21:51:29.190Z,98691.51
2018-07-01T21:53:58.669Z,98692.88
2018-07-01T21:56:27.733Z,98683.69
2018-07-01T21:58:56.889Z,98697.89
2018-07-01T22:01:26.757Z,98688.09
2018-07-01T22:03:55.890Z,98689.15
2018-07-01T22:06:25.402Z,98691.06
2018-07-01T22:08:54.545Z,98690.75
2018-07-01T22:11:52.085Z,98698.36
2018-07-01T22:14:34.786Z,98703.00
2018-07-01T22:17:04.770Z,98696.94
2018-07-01T22:19:34.288Z,98702.11
2018-07-01T22:22:03.679Z,98707.08
2018-07-01T22:24:34.839Z,98705.36
2018-07-01T22:27:03.980Z,98700.90
2018-07-01T22:29:34.124Z,98703.16
2018-07-01T22:32:03.224Z,98704.94
2018-07-01T22:34:32.279Z,98703.80
2018-07-01T22:37:01.830Z,98560.30
2018-07-01T22:39:31.507Z,98702.92
2018-07-01T22:42:01.545Z,98695.59
2018-07-01T22:44:31.129Z,98691.23
2018-07-01T22:47:00.183Z,98694.48
2018-07-01T22:49:30.084Z,98700.33
2018-07-01T22:51:59.189Z,98694.52
2018-07-01T22:54:28.335Z,98695.09
2018-07-01T22:56:57.768Z,98700.16
2018-07-01T22:59:26.967Z,98699.73
2018-07-01T23:03:14.883Z,98702.91
2018-07-01T23:05:44.225Z,98706.61
2018-07-01T23:08:13.350Z,98703.61
2018-07-01T23:10:42.629Z,98701.72
2018-07-01T23:13:11.732Z,98702.70
2018-07-01T23:15:40.869Z,98704.75
2018-07-01T23:18:09.918Z,98699.36
2018-07-01T23:20:39.075Z,98700.50
2018-07-01T23:23:08.168Z,98697.02
2018-07-01T23:25:37.280Z,98700.78
2018-07-01T23:28:06.321Z,98694.19
2018-07-01T23:30:35.378Z,98695.80
2018-07-01T23:33:04.448Z,98693.55
2018-07-01T23:35:33.544Z,98686.36
2018-07-01T23:38:02.575Z,98687.05
2018-07-01T23:40:31.686Z,98686.73
2018-07-01T23:43:01.185Z,98681.57
2018-07-01T23:45:30.257Z,98677.08
2018-07-01T23:47:59.328Z,98670.92
2018-07-01T23:50:28.410Z,98670.69
2018-07-01T23:52:57.510Z,98670.48
2018-07-01T23:55:26.638Z,98668.11
2018-07-01T23:57:55.710Z,98667.77
